createdAt,value
2023-05-19T00:00:19.547Z,69.10
2023-05-19T00:04:05.394Z,69.50
2023-05-19T00:07:50.639Z,69.50
2023-05-19T00:11:33.572Z,70.20
2023-05-19T00:15:15.764Z,70.00
2023-05-19T00:19:02.108Z,70.10
2023-05-19T00:22:46.939Z,71.30
2023-05-19T00:26:28.702Z,70.50
2023-05-19T00:30:10.850Z,70.60
2023-05-19T00:33:52.583Z,70.80
2023-05-19T00:37:34.358Z,70.90
2023-05-19T00:41:16.121Z,71.00
2023-05-19T00:44:58.072Z,71.10
2023-05-19T00:48:39.885Z,71.20
2023-05-19T00:52:21.709Z,71.30
2023-05-19T00:56:03.839Z,71.40
2023-05-19T00:59:45.760Z,71.40
2023-05-19T01:03:30.919Z,71.30
2023-05-19T01:07:12.904Z,71.50
2023-05-19T01:10:54.652Z,71.40
2023-05-19T01:14:36.471Z,71.60
2023-05-19T01:18:26.011Z,71.70
2023-05-19T01:22:28.613Z,72.50
2023-05-19T01:26:37.030Z,72.40
2023-05-19T01:30:33.977Z,73.50
2023-05-19T01:34:17.067Z,72.30
2023-05-19T01:38:00.640Z,71.80
2023-05-19T01:41:43.790Z,72.10
2023-05-19T01:45:26.400Z,71.90
2023-05-19T01:49:08.729Z,72.40
2023-05-19T01:52:51.276Z,71.50
2023-05-19T01:57:07.252Z,71.90
2023-05-19T02:00:53.991Z,73.90
2023-05-19T02:04:43.634Z,71.90
2023-05-19T02:08:50.583Z,72.90
2023-05-19T02:12:36.026Z,74.30
2023-05-19T02:16:18.399Z,72.50
2023-05-19T02:20:00.287Z,72.70
2023-05-19T02:23:42.141Z,72.80
2023-05-19T02:27:24.241Z,73.00
2023-05-19T02:31:08.887Z,73.00
2023-05-19T02:34:50.659Z,73.10
2023-05-19T02:38:32.635Z,73.20
2023-05-19T02:42:17.624Z,73.30
2023-05-19T02:45:59.401Z,73.60
2023-05-19T02:49:42.938Z,73.90
2023-05-19T02:53:24.752Z,74.10
2023-05-19T02:57:06.915Z,74.40
2023-05-19T03:00:48.674Z,74.50
2023-05-19T03:04:30.516Z,74.40
2023-05-19T03:08:12.265Z,74.40
2023-05-19T03:11:54.004Z,74.30
2023-05-19T03:15:36.598Z,74.40
2023-05-19T03:19:18.546Z,74.30
2023-05-19T03:23:01.315Z,74.40
2023-05-19T03:26:43.101Z,74.50
2023-05-19T03:30:24.912Z,74.60
2023-05-19T03:34:06.688Z,74.70
2023-05-19T03:37:48.501Z,74.70
2023-05-19T03:41:30.244Z,75.00
2023-05-19T03:45:12.035Z,75.10
2023-05-19T03:48:53.801Z,75.40
2023-05-19T03:52:36.264Z,75.50
2023-05-19T03:56:18.269Z,75.70
2023-05-19T04:00:00.090Z,75.80
2023-05-19T04:03:42.005Z,75.90
2023-05-19T04:07:23.867Z,76.00
2023-05-19T04:11:05.637Z,76.10
2023-05-19T04:14:47.364Z,76.10
2023-05-19T04:18:29.533Z,76.10
2023-05-19T04:22:11.378Z,76.20
2023-05-19T04:25:54.306Z,76.20
2023-05-19T04:29:36.086Z,76.30
2023-05-19T04:33:17.883Z,76.40
2023-05-19T04:36:59.766Z,76.50
2023-05-19T04:40:42.516Z,76.50
2023-05-19T04:44:24.408Z,76.50
2023-05-19T04:48:06.520Z,76.60
2023-05-19T04:51:50.310Z,76.60
2023-05-19T04:55:32.963Z,76.60
2023-05-19T04:59:14.779Z,76.60
2023-05-19T05:02:57.721Z,76.70
2023-05-19T05:06:40.500Z,76.70
2023-05-19T05:10:22.261Z,77.30
2023-05-19T05:14:04.223Z,76.20
2023-05-19T05:17:46.393Z,76.40
2023-05-19T05:21:29.238Z,76.40
2023-05-19T05:25:11.818Z,76.50
2023-05-19T05:28:53.577Z,76.50
2023-05-19T05:32:35.799Z,76.50
2023-05-19T05:36:17.898Z,76.60
2023-05-19T05:39:59.663Z,76.60
2023-05-19T05:43:41.427Z,76.60
2023-05-19T05:47:23.555Z,76.70
2023-05-19T05:51:06.070Z,76.80
2023-05-19T05:54:48.049Z,76.90
2023-05-19T05:58:29.883Z,76.80
2023-05-19T06:02:11.821Z,76.80
2023-05-19T06:05:53.726Z,76.70
2023-05-19T06:09:35.896Z,77.10
2023-05-19T06:13:22.250Z,77.70
2023-05-19T06:17:04.258Z,77.20
2023-05-19T06:20:46.035Z,76.80
2023-05-19T06:24:27.794Z,76.50
2023-05-19T06:28:09.557Z,76.40
2023-05-19T06:31:51.454Z,76.50
2023-05-19T06:35:33.363Z,76.40
2023-05-19T06:39:15.128Z,76.60
2023-05-19T06:42:56.868Z,76.80
2023-05-19T06:46:38.718Z,77.00
2023-05-19T06:50:20.551Z,76.70
2023-05-19T06:54:02.969Z,76.30
2023-05-19T06:57:44.786Z,76.00
2023-05-19T07:01:27.850Z,75.90
2023-05-19T07:05:10.345Z,75.20
2023-05-19T07:08:52.143Z,74.50
2023-05-19T07:12:34.351Z,74.00
2023-05-19T07:16:16.150Z,73.80
2023-05-19T07:19:58.030Z,73.30
2023-05-19T07:23:39.830Z,72.80
2023-05-19T07:27:21.669Z,72.40
2023-05-19T07:31:03.503Z,72.10
2023-05-19T07:34:45.589Z,72.00
2023-05-19T07:38:28.798Z,72.00
2023-05-19T07:42:10.561Z,71.70
2023-05-19T07:45:53.537Z,71.40
2023-05-19T07:49:35.434Z,70.60
2023-05-19T07:53:17.178Z,70.40
2023-05-19T07:56:58.922Z,70.20
2023-05-19T08:00:43.117Z,70.00
2023-05-19T08:04:24.957Z,69.60
2023-05-19T08:08:06.750Z,69.10
2023-05-19T08:11:49.242Z,68.60
2023-05-19T08:15:31.001Z,68.80
2023-05-19T08:19:12.873Z,68.30
2023-05-19T08:22:54.677Z,67.90
2023-05-19T08:26:37.741Z,67.50
2023-05-19T08:30:20.189Z,67.30
2023-05-19T08:34:01.991Z,66.80
2023-05-19T08:37:43.780Z,66.40
2023-05-19T08:41:26.403Z,66.70
2023-05-19T08:45:08.677Z,66.70
2023-05-19T08:48:54.194Z,66.70
2023-05-19T08:52:53.612Z,66.40
2023-05-19T08:56:35.902Z,65.70
2023-05-19T09:00:19.910Z,66.00
2023-05-19T09:04:02.158Z,66.50
2023-05-19T09:07:46.083Z,66.00
2023-05-19T09:11:27.953Z,65.20
2023-05-19T09:15:10.857Z,65.20
2023-05-19T09:18:57.138Z,65.20
2023-05-19T09:22:47.347Z,65.00
2023-05-19T09:26:43.123Z,64.30
2023-05-19T09:30:25.019Z,63.60
2023-05-19T09:34:12.945Z,64.70
2023-05-19T09:37:55.243Z,64.40
2023-05-19T09:41:37.565Z,64.90
2023-05-19T09:45:20.583Z,64.80
2023-05-19T09:49:09.695Z,64.80
2023-05-19T09:52:53.065Z,64.80
2023-05-19T09:56:35.187Z,65.90
2023-05-19T10:00:18.111Z,65.30
2023-05-19T10:04:00.622Z,65.30
2023-05-19T10:07:48.479Z,65.30
2023-05-19T10:11:31.494Z,65.30
2023-05-19T10:15:15.635Z,65.40
2023-05-19T10:18:59.719Z,65.30
2023-05-19T10:22:43.577Z,65.00
2023-05-19T10:26:26.578Z,64.80
2023-05-19T10:30:14.435Z,65.00
2023-05-19T10:34:13.864Z,64.60
2023-05-19T10:38:11.520Z,64.60
2023-05-19T10:42:02.608Z,63.60
2023-05-19T10:45:53.435Z,64.00
2023-05-19T10:49:36.697Z,63.50
2023-05-19T10:53:22.063Z,63.80
2023-05-19T10:57:04.453Z,63.60
2023-05-19T11:00:46.208Z,63.40
2023-05-19T11:04:51.162Z,64.20
2023-05-19T11:08:34.954Z,63.20
2023-05-19T11:12:24.819Z,63.60
2023-05-19T11:16:10.262Z,63.00
2023-05-19T11:19:56.905Z,62.70
2023-05-19T11:23:41.990Z,62.10
2023-05-19T11:27:33.378Z,62.70
2023-05-19T11:31:15.203Z,62.00
2023-05-19T11:34:57.977Z,62.50
2023-05-19T11:38:40.184Z,62.40
2023-05-19T11:42:22.060Z,62.50
2023-05-19T11:46:04.002Z,62.60
2023-05-19T11:49:48.485Z,62.60
2023-05-19T11:53:33.307Z,61.70
2023-05-19T11:57:16.592Z,62.00
2023-05-19T12:01:03.993Z,62.10
2023-05-19T12:04:46.587Z,62.10
2023-05-19T12:08:29.340Z,61.90
2023-05-19T12:12:14.098Z,61.80
2023-05-19T12:16:01.054Z,61.50
2023-05-19T12:19:47.295Z,61.80
2023-05-19T12:23:30.820Z,61.20
2023-05-19T12:27:17.588Z,61.60
2023-05-19T12:30:59.776Z,60.70
2023-05-19T12:34:41.962Z,61.40
2023-05-19T12:38:23.800Z,61.40
2023-05-19T12:42:09.643Z,61.50
2023-05-19T12:45:52.289Z,60.80
2023-05-19T12:49:34.740Z,61.20
2023-05-19T12:53:16.683Z,60.80
2023-05-19T12:56:59.165Z,60.70
2023-05-19T13:00:45.703Z,60.30
2023-05-19T13:04:28.382Z,59.90
2023-05-19T13:08:10.841Z,60.70
2023-05-19T13:11:54.052Z,60.40
2023-05-19T13:15:39.449Z,60.60
2023-05-19T13:19:25.311Z,60.30
2023-05-19T13:23:07.638Z,60.40
2023-05-19T13:26:49.448Z,60.40
2023-05-19T13:30:35.536Z,60.00
2023-05-19T13:34:19.656Z,60.00
2023-05-19T13:38:04.251Z,60.50
2023-05-19T13:41:46.702Z,60.90
2023-05-19T13:45:28.907Z,61.30
2023-05-19T13:49:10.749Z,61.60
2023-05-19T13:52:52.520Z,62.00
2023-05-19T13:56:34.434Z,62.60
2023-05-19T14:00:18.224Z,62.90
2023-05-19T14:04:01.034Z,62.60
2023-05-19T14:07:44.484Z,62.70
2023-05-19T14:11:26.285Z,63.20
2023-05-19T14:15:09.223Z,62.90
2023-05-19T14:18:52.497Z,62.80
2023-05-19T14:22:34.291Z,62.80
2023-05-19T14:26:16.192Z,62.60
2023-05-19T14:29:58.154Z,62.30
2023-05-19T14:33:41.086Z,62.00
2023-05-19T14:37:22.952Z,61.40
2023-05-19T14:41:04.918Z,61.10
2023-05-19T14:44:46.739Z,61.80
2023-05-19T14:48:28.569Z,60.80
2023-05-19T14:52:10.423Z,60.50
2023-05-19T14:55:52.198Z,60.30
2023-05-19T14:59:37.798Z,59.70
2023-05-19T15:03:19.694Z,59.00
2023-05-19T15:10:50.030Z,58.80
2023-05-19T15:14:31.774Z,59.70
2023-05-19T15:18:16.148Z,60.30
2023-05-19T15:21:58.160Z,60.50
2023-05-19T15:25:40.773Z,60.40
2023-05-19T15:29:22.516Z,61.00
2023-05-19T15:33:04.470Z,60.20
2023-05-19T15:36:47.080Z,60.60
2023-05-19T15:40:28.756Z,60.70
2023-05-19T15:44:10.647Z,60.60
2023-05-19T15:47:52.632Z,60.70
2023-05-19T15:51:34.954Z,60.60
2023-05-19T15:55:16.808Z,60.40
2023-05-19T15:58:58.568Z,60.40
2023-05-19T16:02:41.002Z,61.00
2023-05-19T16:06:22.977Z,61.60
2023-05-19T16:10:05.188Z,62.20
2023-05-19T16:13:47.574Z,62.40
2023-05-19T16:17:29.344Z,62.10
2023-05-19T16:21:11.371Z,62.10
2023-05-19T16:24:53.163Z,62.20
2023-05-19T16:28:34.988Z,62.10
2023-05-19T16:32:16.802Z,62.10
2023-05-19T16:35:59.897Z,62.40
2023-05-19T16:39:43.725Z,62.40
2023-05-19T16:43:26.258Z,62.30
2023-05-19T16:47:08.027Z,62.50
2023-05-19T16:50:49.784Z,62.50
2023-05-19T16:54:31.541Z,62.60
2023-05-19T16:58:13.354Z,62.60
2023-05-19T17:01:56.102Z,63.50
2023-05-19T17:05:38.994Z,62.80
2023-05-19T17:09:25.106Z,62.80
2023-05-19T17:13:06.902Z,62.80
2023-05-19T17:16:48.781Z,63.10
2023-05-19T17:20:30.680Z,63.30
2023-05-19T17:24:12.554Z,63.50
2023-05-19T17:27:55.719Z,63.60
2023-05-19T17:31:37.480Z,63.50
2023-05-19T17:35:19.222Z,63.40
2023-05-19T17:39:01.142Z,63.60
2023-05-19T17:42:43.116Z,63.50
2023-05-19T17:46:24.925Z,63.40
2023-05-19T17:50:07.234Z,63.20
2023-05-19T17:53:49.382Z,63.30
2023-05-19T17:57:32.923Z,63.40
2023-05-19T18:01:15.532Z,63.80
2023-05-19T18:04:57.736Z,64.10
2023-05-19T18:08:42.514Z,64.40
2023-05-19T18:12:24.248Z,64.60
2023-05-19T18:16:06.515Z,64.60
2023-05-19T18:19:49.418Z,64.80
2023-05-19T18:23:31.295Z,64.90
2023-05-19T18:27:13.099Z,65.20
2023-05-19T18:31:02.535Z,65.40
2023-05-19T18:34:44.393Z,66.30
2023-05-19T18:38:26.279Z,65.50
2023-05-19T18:42:08.088Z,65.80
2023-05-19T18:45:49.986Z,65.80
2023-05-19T18:49:31.925Z,66.10
2023-05-19T18:53:13.783Z,67.00
2023-05-19T18:56:55.712Z,66.40
2023-05-19T19:00:37.727Z,66.50
2023-05-19T19:04:19.719Z,66.40
2023-05-19T19:08:02.360Z,66.30
2023-05-19T19:11:44.226Z,66.20
2023-05-19T19:15:28.232Z,66.20
2023-05-19T19:19:10.199Z,66.40
2023-05-19T19:22:52.127Z,66.60
2023-05-19T19:26:34.171Z,66.70
2023-05-19T19:30:15.999Z,66.90
2023-05-19T19:34:00.818Z,67.00
2023-05-19T19:37:42.628Z,67.20
2023-05-19T19:41:26.126Z,67.50
2023-05-19T19:45:08.451Z,67.60
2023-05-19T19:48:51.023Z,67.90
2023-05-19T19:52:32.787Z,68.00
2023-05-19T19:56:14.572Z,68.20
2023-05-19T19:59:59.090Z,68.30
2023-05-19T20:03:41.037Z,68.60
2023-05-19T20:07:23.248Z,68.70
2023-05-19T20:11:05.186Z,68.90
2023-05-19T20:14:47.625Z,69.10
2023-05-19T20:18:29.981Z,69.20
2023-05-19T20:22:11.995Z,69.40
2023-05-19T20:26:10.187Z,69.50
2023-05-19T20:29:54.042Z,69.60
2023-05-19T20:33:35.916Z,69.80
2023-05-19T20:37:17.746Z,70.00
2023-05-19T20:40:59.744Z,70.20
2023-05-19T20:44:42.518Z,70.30
2023-05-19T20:48:24.338Z,70.50
2023-05-19T20:52:06.338Z,70.70
2023-05-19T20:55:48.300Z,70.90
2023-05-19T20:59:30.216Z,71.10
2023-05-19T21:03:12.156Z,71.30
2023-05-19T21:06:54.258Z,71.40
2023-05-19T21:10:36.103Z,71.60
2023-05-19T21:14:17.872Z,71.70
2023-05-19T21:17:59.693Z,71.90
2023-05-19T21:21:44.747Z,72.00
2023-05-19T21:25:26.554Z,72.20
2023-05-19T21:29:09.113Z,72.40
2023-05-19T21:32:51.255Z,72.70
2023-05-19T21:36:33.842Z,72.80
2023-05-19T21:40:16.118Z,72.90
2023-05-19T21:43:58.386Z,73.00
2023-05-19T21:47:40.454Z,73.20
2023-05-19T21:51:22.215Z,73.40
2023-05-19T21:55:04.388Z,73.50
2023-05-19T21:58:46.162Z,73.70
2023-05-19T22:02:28.023Z,73.80
2023-05-19T22:06:09.805Z,73.80
2023-05-19T22:09:51.558Z,74.00
2023-05-19T22:13:33.901Z,74.10
2023-05-19T22:17:15.715Z,74.30
2023-05-19T22:20:58.427Z,74.40
2023-05-19T22:24:40.430Z,74.50
2023-05-19T22:28:25.188Z,74.70
2023-05-19T22:32:11.779Z,74.80
2023-05-19T22:35:53.712Z,75.20
2023-05-19T22:39:35.582Z,75.20
2023-05-19T22:43:17.672Z,75.40
2023-05-19T22:47:02.736Z,75.40
2023-05-19T22:50:44.711Z,76.40
2023-05-19T22:54:26.584Z,75.70
2023-05-19T22:58:09.163Z,75.70
2023-05-19T23:01:51.022Z,76.00
2023-05-19T23:05:33.543Z,76.00
2023-05-19T23:09:19.065Z,76.20
2023-05-19T23:13:00.849Z,76.30
2023-05-19T23:16:42.653Z,76.40
2023-05-19T23:20:24.505Z,76.60
2023-05-19T23:24:06.616Z,76.90
2023-05-19T23:27:48.391Z,77.00
2023-05-19T23:31:34.948Z,77.00
2023-05-19T23:35:17.663Z,77.10
2023-05-19T23:39:01.073Z,77.50
2023-05-19T23:42:44.639Z,77.80
2023-05-19T23:46:26.704Z,77.60
2023-05-19T23:50:08.967Z,77.80
2023-05-19T23:53:50.882Z,77.90
2023-05-19T23:57:32.657Z,78.10
